sensor_id;sensor_type;location;lat;lon;timestamp;P1;durP1;ratioP1;P2;durP2;ratioP2
50773;SDS011;36745;48.544;8.918;2024-02-14T00:00:29;30.98;;;16.65;;
50773;SDS011;36745;48.544;8.918;2024-02-14T00:03:49;29.38;;;16.08;;
50773;SDS011;36745;48.544;8.918;2024-02-14T00:07:09;28.90;;;15.02;;
50773;SDS011;36745;48.544;8.918;2024-02-14T00:10:29;29.75;;;15.10;;
50773;SDS011;36745;48.544;8.918;2024-02-14T00:13:49;26.95;;;15.70;;
50773;SDS011;36745;48.544;8.918;2024-02-14T00:17:09;28.90;;;16.55;;
50773;SDS011;36745;48.544;8.918;2024-02-14T00:20:29;28.35;;;15.60;;
50773;SDS011;36745;48.544;8.918;2024-02-14T00:23:49;25.52;;;15.02;;
50773;SDS011;36745;48.544;8.918;2024-02-14T00:27:10;26.05;;;15.98;;
50773;SDS011;36745;48.544;8.918;2024-02-14T00:30:30;27.65;;;15.90;;
50773;SDS011;36745;48.544;8.918;2024-02-14T00:33:50;29.95;;;15.32;;
50773;SDS011;36745;48.544;8.918;2024-02-14T00:37:10;28.73;;;17.25;;
50773;SDS011;36745;48.544;8.918;2024-02-14T00:40:30;28.90;;;16.48;;
50773;SDS011;36745;48.544;8.918;2024-02-14T00:43:49;31.38;;;18.77;;
50773;SDS011;36745;48.544;8.918;2024-02-14T00:47:09;34.40;;;20.15;;
50773;SDS011;36745;48.544;8.918;2024-02-14T00:50:29;34.85;;;18.73;;
50773;SDS011;36745;48.544;8.918;2024-02-14T00:53:49;27.98;;;17.88;;
50773;SDS011;36745;48.544;8.918;2024-02-14T00:57:08;31.95;;;17.13;;
50773;SDS011;36745;48.544;8.918;2024-02-14T01:00:28;31.25;;;16.63;;
50773;SDS011;36745;48.544;8.918;2024-02-14T01:03:48;25.75;;;16.10;;
50773;SDS011;36745;48.544;8.918;2024-02-14T01:07:08;31.35;;;16.85;;
50773;SDS011;36745;48.544;8.918;2024-02-14T01:10:28;33.67;;;17.17;;
50773;SDS011;36745;48.544;8.918;2024-02-14T01:13:48;28.45;;;17.60;;
50773;SDS011;36745;48.544;8.918;2024-02-14T01:17:08;30.90;;;17.00;;
50773;SDS011;36745;48.544;8.918;2024-02-14T01:20:27;27.13;;;17.00;;
50773;SDS011;36745;48.544;8.918;2024-02-14T01:23:47;30.83;;;16.67;;
50773;SDS011;36745;48.544;8.918;2024-02-14T01:27:07;30.98;;;18.13;;
50773;SDS011;36745;48.544;8.918;2024-02-14T01:30:27;30.58;;;16.95;;
50773;SDS011;36745;48.544;8.918;2024-02-14T01:33:47;30.55;;;17.33;;
50773;SDS011;36745;48.544;8.918;2024-02-14T01:37:07;24.48;;;15.60;;
50773;SDS011;36745;48.544;8.918;2024-02-14T01:40:29;26.20;;;15.68;;
50773;SDS011;36745;48.544;8.918;2024-02-14T01:43:49;26.20;;;16.42;;
50773;SDS011;36745;48.544;8.918;2024-02-14T01:47:09;26.65;;;15.73;;
50773;SDS011;36745;48.544;8.918;2024-02-14T01:50:29;30.13;;;16.48;;
50773;SDS011;36745;48.544;8.918;2024-02-14T01:53:51;29.70;;;18.23;;
50773;SDS011;36745;48.544;8.918;2024-02-14T01:57:13;27.33;;;15.23;;
50773;SDS011;36745;48.544;8.918;2024-02-14T02:00:33;23.92;;;15.30;;
50773;SDS011;36745;48.544;8.918;2024-02-14T02:03:55;24.70;;;16.38;;
50773;SDS011;36745;48.544;8.918;2024-02-14T02:07:14;25.17;;;15.32;;
50773;SDS011;36745;48.544;8.918;2024-02-14T02:10:34;26.77;;;16.08;;
50773;SDS011;36745;48.544;8.918;2024-02-14T02:13:54;24.48;;;15.73;;
50773;SDS011;36745;48.544;8.918;2024-02-14T02:17:14;31.30;;;16.83;;
50773;SDS011;36745;48.544;8.918;2024-02-14T02:20:35;24.17;;;16.05;;
50773;SDS011;36745;48.544;8.918;2024-02-14T02:23:55;24.58;;;15.52;;
50773;SDS011;36745;48.544;8.918;2024-02-14T02:27:14;30.27;;;15.23;;
50773;SDS011;36745;48.544;8.918;2024-02-14T02:30:36;23.00;;;15.55;;
50773;SDS011;36745;48.544;8.918;2024-02-14T02:33:56;20.80;;;14.57;;
50773;SDS011;36745;48.544;8.918;2024-02-14T02:37:16;21.80;;;14.52;;
50773;SDS011;36745;48.544;8.918;2024-02-14T02:40:37;24.15;;;13.32;;
50773;SDS011;36745;48.544;8.918;2024-02-14T02:43:57;23.67;;;14.93;;
50773;SDS011;36745;48.544;8.918;2024-02-14T02:47:16;24.42;;;15.10;;
50773;SDS011;36745;48.544;8.918;2024-02-14T02:50:36;25.67;;;15.23;;
50773;SDS011;36745;48.544;8.918;2024-02-14T02:53:56;26.67;;;15.63;;
50773;SDS011;36745;48.544;8.918;2024-02-14T02:57:16;21.10;;;14.13;;
50773;SDS011;36745;48.544;8.918;2024-02-14T03:00:38;21.33;;;14.65;;
50773;SDS011;36745;48.544;8.918;2024-02-14T03:03:58;20.40;;;13.57;;
50773;SDS011;36745;48.544;8.918;2024-02-14T03:07:18;19.83;;;13.73;;
50773;SDS011;36745;48.544;8.918;2024-02-14T03:10:39;19.98;;;14.07;;
50773;SDS011;36745;48.544;8.918;2024-02-14T03:13:59;20.45;;;14.93;;
50773;SDS011;36745;48.544;8.918;2024-02-14T03:17:19;23.08;;;15.27;;
50773;SDS011;36745;48.544;8.918;2024-02-14T03:20:39;22.63;;;14.85;;
50773;SDS011;36745;48.544;8.918;2024-02-14T03:23:59;23.02;;;15.52;;
50773;SDS011;36745;48.544;8.918;2024-02-14T03:27:18;19.13;;;13.70;;
50773;SDS011;36745;48.544;8.918;2024-02-14T03:30:38;20.30;;;12.90;;
50773;SDS011;36745;48.544;8.918;2024-02-14T03:33:58;24.52;;;14.93;;
50773;SDS011;36745;48.544;8.918;2024-02-14T03:37:18;23.33;;;14.98;;
50773;SDS011;36745;48.544;8.918;2024-02-14T03:40:37;20.02;;;13.73;;
50773;SDS011;36745;48.544;8.918;2024-02-14T03:43:58;18.83;;;13.35;;
50773;SDS011;36745;48.544;8.918;2024-02-14T03:47:19;24.10;;;14.23;;
50773;SDS011;36745;48.544;8.918;2024-02-14T03:50:39;22.38;;;15.38;;
50773;SDS011;36745;48.544;8.918;2024-02-14T03:53:59;25.45;;;14.90;;
50773;SDS011;36745;48.544;8.918;2024-02-14T03:57:19;20.98;;;14.68;;
50773;SDS011;36745;48.544;8.918;2024-02-14T04:00:39;21.13;;;14.13;;
50773;SDS011;36745;48.544;8.918;2024-02-14T04:03:59;24.05;;;15.15;;
50773;SDS011;36745;48.544;8.918;2024-02-14T04:07:19;20.77;;;13.25;;
50773;SDS011;36745;48.544;8.918;2024-02-14T04:10:39;21.30;;;14.52;;
50773;SDS011;36745;48.544;8.918;2024-02-14T04:13:58;23.85;;;15.43;;
50773;SDS011;36745;48.544;8.918;2024-02-14T04:17:18;24.63;;;18.85;;
50773;SDS011;36745;48.544;8.918;2024-02-14T04:20:38;23.60;;;14.60;;
50773;SDS011;36745;48.544;8.918;2024-02-14T04:23:57;24.00;;;14.52;;
50773;SDS011;36745;48.544;8.918;2024-02-14T04:27:17;21.23;;;14.30;;
50773;SDS011;36745;48.544;8.918;2024-02-14T04:30:37;21.00;;;15.40;;
50773;SDS011;36745;48.544;8.918;2024-02-14T04:33:58;20.85;;;14.50;;
50773;SDS011;36745;48.544;8.918;2024-02-14T04:37:17;20.33;;;13.77;;
50773;SDS011;36745;48.544;8.918;2024-02-14T04:40:38;22.55;;;15.05;;
50773;SDS011;36745;48.544;8.918;2024-02-14T04:43:58;20.25;;;14.18;;
50773;SDS011;36745;48.544;8.918;2024-02-14T04:47:18;24.38;;;14.63;;
50773;SDS011;36745;48.544;8.918;2024-02-14T04:50:37;21.25;;;14.23;;
50773;SDS011;36745;48.544;8.918;2024-02-14T04:53:57;24.08;;;17.77;;
50773;SDS011;36745;48.544;8.918;2024-02-14T04:57:20;25.00;;;18.03;;
50773;SDS011;36745;48.544;8.918;2024-02-14T05:00:40;25.40;;;17.40;;
50773;SDS011;36745;48.544;8.918;2024-02-14T05:04:00;40.38;;;30.85;;
50773;SDS011;36745;48.544;8.918;2024-02-14T05:07:19;27.60;;;20.63;;
50773;SDS011;36745;48.544;8.918;2024-02-14T05:10:39;33.13;;;24.23;;
50773;SDS011;36745;48.544;8.918;2024-02-14T05:14:00;30.85;;;22.63;;
50773;SDS011;36745;48.544;8.918;2024-02-14T05:17:20;25.13;;;15.35;;
50773;SDS011;36745;48.544;8.918;2024-02-14T05:20:40;21.88;;;15.15;;
50773;SDS011;36745;48.544;8.918;2024-02-14T05:24:01;23.63;;;15.75;;
50773;SDS011;36745;48.544;8.918;2024-02-14T05:27:20;41.20;;;24.83;;
50773;SDS011;36745;48.544;8.918;2024-02-14T05:30:40;43.47;;;25.20;;
50773;SDS011;36745;48.544;8.918;2024-02-14T05:34:00;52.17;;;32.42;;
50773;SDS011;36745;48.544;8.918;2024-02-14T05:37:20;38.47;;;23.58;;
50773;SDS011;36745;48.544;8.918;2024-02-14T05:40:39;35.15;;;21.55;;
50773;SDS011;36745;48.544;8.918;2024-02-14T05:43:59;50.53;;;32.50;;
50773;SDS011;36745;48.544;8.918;2024-02-14T05:47:19;38.65;;;27.25;;
50773;SDS011;36745;48.544;8.918;2024-02-14T05:50:39;34.47;;;24.00;;
50773;SDS011;36745;48.544;8.918;2024-02-14T05:53:58;37.65;;;25.20;;
50773;SDS011;36745;48.544;8.918;2024-02-14T05:57:19;34.10;;;21.60;;
50773;SDS011;36745;48.544;8.918;2024-02-14T06:00:39;29.15;;;19.23;;
50773;SDS011;36745;48.544;8.918;2024-02-14T06:03:59;44.42;;;28.25;;
50773;SDS011;36745;48.544;8.918;2024-02-14T06:07:18;26.13;;;16.67;;
50773;SDS011;36745;48.544;8.918;2024-02-14T06:10:38;26.15;;;18.10;;
50773;SDS011;36745;48.544;8.918;2024-02-14T06:13:59;46.35;;;25.30;;
50773;SDS011;36745;48.544;8.918;2024-02-14T06:17:18;59.80;;;34.90;;
50773;SDS011;36745;48.544;8.918;2024-02-14T06:20:38;43.42;;;27.02;;
50773;SDS011;36745;48.544;8.918;2024-02-14T06:23:59;48.10;;;27.63;;
50773;SDS011;36745;48.544;8.918;2024-02-14T06:27:19;51.88;;;29.50;;
50773;SDS011;36745;48.544;8.918;2024-02-14T06:30:39;80.50;;;44.08;;
50773;SDS011;36745;48.544;8.918;2024-02-14T06:33:59;68.88;;;35.20;;
50773;SDS011;36745;48.544;8.918;2024-02-14T06:37:19;53.58;;;28.63;;
50773;SDS011;36745;48.544;8.918;2024-02-14T06:40:39;54.00;;;30.33;;
50773;SDS011;36745;48.544;8.918;2024-02-14T06:43:59;61.80;;;36.40;;
50773;SDS011;36745;48.544;8.918;2024-02-14T06:47:19;66.97;;;36.92;;
50773;SDS011;36745;48.544;8.918;2024-02-14T06:50:39;71.07;;;35.88;;
50773;SDS011;36745;48.544;8.918;2024-02-14T06:53:59;46.47;;;23.40;;
50773;SDS011;36745;48.544;8.918;2024-02-14T06:57:18;39.00;;;23.63;;
50773;SDS011;36745;48.544;8.918;2024-02-14T07:00:38;31.92;;;18.17;;
50773;SDS011;36745;48.544;8.918;2024-02-14T07:03:58;55.88;;;32.25;;
50773;SDS011;36745;48.544;8.918;2024-02-14T07:07:18;57.13;;;33.78;;
50773;SDS011;36745;48.544;8.918;2024-02-14T07:10:38;63.65;;;32.80;;
50773;SDS011;36745;48.544;8.918;2024-02-14T07:13:57;126.00;;;52.58;;
50773;SDS011;36745;48.544;8.918;2024-02-14T07:17:17;99.90;;;44.80;;
50773;SDS011;36745;48.544;8.918;2024-02-14T07:20:37;97.65;;;48.30;;
50773;SDS011;36745;48.544;8.918;2024-02-14T07:23:57;80.15;;;41.17;;
50773;SDS011;36745;48.544;8.918;2024-02-14T07:27:17;72.80;;;37.63;;
50773;SDS011;36745;48.544;8.918;2024-02-14T07:30:37;59.95;;;33.88;;
50773;SDS011;36745;48.544;8.918;2024-02-14T07:33:57;55.55;;;30.83;;
50773;SDS011;36745;48.544;8.918;2024-02-14T07:37:16;35.83;;;22.80;;
50773;SDS011;36745;48.544;8.918;2024-02-14T07:40:39;28.15;;;16.65;;
50773;SDS011;36745;48.544;8.918;2024-02-14T07:43:59;21.10;;;11.95;;
50773;SDS011;36745;48.544;8.918;2024-02-14T07:47:18;20.92;;;12.15;;
50773;SDS011;36745;48.544;8.918;2024-02-14T07:50:38;23.35;;;13.25;;
50773;SDS011;36745;48.544;8.918;2024-02-14T07:53:58;28.45;;;16.88;;
50773;SDS011;36745;48.544;8.918;2024-02-14T07:57:18;33.78;;;19.75;;
50773;SDS011;36745;48.544;8.918;2024-02-14T08:00:37;53.20;;;26.17;;
50773;SDS011;36745;48.544;8.918;2024-02-14T08:03:57;72.00;;;36.38;;
50773;SDS011;36745;48.544;8.918;2024-02-14T08:07:17;65.57;;;37.88;;
50773;SDS011;36745;48.544;8.918;2024-02-14T08:10:37;54.92;;;32.00;;
50773;SDS011;36745;48.544;8.918;2024-02-14T08:13:58;37.92;;;22.65;;
50773;SDS011;36745;48.544;8.918;2024-02-14T08:17:18;45.40;;;27.85;;
50773;SDS011;36745;48.544;8.918;2024-02-14T08:20:38;42.00;;;24.10;;
50773;SDS011;36745;48.544;8.918;2024-02-14T08:23:58;42.75;;;24.17;;
50773;SDS011;36745;48.544;8.918;2024-02-14T08:27:18;41.58;;;22.80;;
50773;SDS011;36745;48.544;8.918;2024-02-14T08:30:38;35.83;;;21.27;;
50773;SDS011;36745;48.544;8.918;2024-02-14T08:33:58;34.13;;;20.17;;
50773;SDS011;36745;48.544;8.918;2024-02-14T08:37:18;32.58;;;19.20;;
50773;SDS011;36745;48.544;8.918;2024-02-14T08:40:37;41.38;;;21.52;;
50773;SDS011;36745;48.544;8.918;2024-02-14T08:43:57;30.58;;;19.10;;
50773;SDS011;36745;48.544;8.918;2024-02-14T08:47:17;36.40;;;20.58;;
50773;SDS011;36745;48.544;8.918;2024-02-14T08:50:37;48.08;;;29.85;;
50773;SDS011;36745;48.544;8.918;2024-02-14T08:53:57;44.95;;;28.77;;
50773;SDS011;36745;48.544;8.918;2024-02-14T08:57:18;39.55;;;24.75;;
50773;SDS011;36745;48.544;8.918;2024-02-14T09:00:39;83.85;;;51.95;;
50773;SDS011;36745;48.544;8.918;2024-02-14T09:04:00;44.38;;;30.50;;
50773;SDS011;36745;48.544;8.918;2024-02-14T09:07:19;42.83;;;27.95;;
50773;SDS011;36745;48.544;8.918;2024-02-14T09:10:39;37.65;;;26.45;;
50773;SDS011;36745;48.544;8.918;2024-02-14T09:13:59;31.08;;;23.70;;
50773;SDS011;36745;48.544;8.918;2024-02-14T09:17:24;40.33;;;27.48;;
50773;SDS011;36745;48.544;8.918;2024-02-14T09:20:43;31.58;;;21.73;;
50773;SDS011;36745;48.544;8.918;2024-02-14T09:24:05;27.58;;;17.10;;
50773;SDS011;36745;48.544;8.918;2024-02-14T09:27:26;24.17;;;16.83;;
50773;SDS011;36745;48.544;8.918;2024-02-14T09:30:46;19.23;;;11.38;;
50773;SDS011;36745;48.544;8.918;2024-02-14T09:34:06;28.08;;;13.50;;
50773;SDS011;36745;48.544;8.918;2024-02-14T09:37:26;26.27;;;15.77;;
50773;SDS011;36745;48.544;8.918;2024-02-14T09:40:48;6.30;;;4.43;;
50773;SDS011;36745;48.544;8.918;2024-02-14T09:44:13;6.65;;;3.03;;
50773;SDS011;36745;48.544;8.918;2024-02-14T09:47:32;4.47;;;2.40;;
50773;SDS011;36745;48.544;8.918;2024-02-14T09:50:53;5.60;;;2.83;;
50773;SDS011;36745;48.544;8.918;2024-02-14T09:54:13;5.70;;;2.50;;
50773;SDS011;36745;48.544;8.918;2024-02-14T09:57:33;5.30;;;1.60;;
50773;SDS011;36745;48.544;8.918;2024-02-14T10:00:53;2.88;;;1.70;;
50773;SDS011;36745;48.544;8.918;2024-02-14T10:04:13;8.98;;;3.30;;
50773;SDS011;36745;48.544;8.918;2024-02-14T10:07:43;5.95;;;2.60;;
50773;SDS011;36745;48.544;8.918;2024-02-14T10:11:05;4.10;;;2.20;;
50773;SDS011;36745;48.544;8.918;2024-02-14T10:14:25;3.63;;;1.80;;
50773;SDS011;36745;48.544;8.918;2024-02-14T10:17:45;2.00;;;1.38;;
50773;SDS011;36745;48.544;8.918;2024-02-14T10:21:05;5.72;;;1.77;;
50773;SDS011;36745;48.544;8.918;2024-02-14T10:24:25;3.20;;;1.65;;
50773;SDS011;36745;48.544;8.918;2024-02-14T10:27:45;2.30;;;1.55;;
50773;SDS011;36745;48.544;8.918;2024-02-14T10:31:06;3.95;;;1.30;;
50773;SDS011;36745;48.544;8.918;2024-02-14T10:34:28;3.17;;;1.30;;
50773;SDS011;36745;48.544;8.918;2024-02-14T10:37:49;4.43;;;1.52;;
50773;SDS011;36745;48.544;8.918;2024-02-14T10:41:09;5.13;;;1.35;;
50773;SDS011;36745;48.544;8.918;2024-02-14T10:44:31;2.35;;;1.30;;
50773;SDS011;36745;48.544;8.918;2024-02-14T10:47:52;3.50;;;1.30;;
50773;SDS011;36745;48.544;8.918;2024-02-14T10:51:13;2.35;;;1.30;;
50773;SDS011;36745;48.544;8.918;2024-02-14T10:54:35;1.80;;;1.20;;
50773;SDS011;36745;48.544;8.918;2024-02-14T10:57:55;2.08;;;1.20;;
50773;SDS011;36745;48.544;8.918;2024-02-14T11:01:16;3.20;;;1.20;;
50773;SDS011;36745;48.544;8.918;2024-02-14T11:04:37;2.50;;;1.50;;
50773;SDS011;36745;48.544;8.918;2024-02-14T11:07:57;3.33;;;1.15;;
50773;SDS011;36745;48.544;8.918;2024-02-14T11:11:28;6.20;;;1.50;;
50773;SDS011;36745;48.544;8.918;2024-02-14T11:14:49;3.10;;;1.33;;
50773;SDS011;36745;48.544;8.918;2024-02-14T11:18:11;2.13;;;1.38;;
50773;SDS011;36745;48.544;8.918;2024-02-14T11:21:31;2.60;;;1.00;;
50773;SDS011;36745;48.544;8.918;2024-02-14T11:24:55;4.47;;;1.60;;
50773;SDS011;36745;48.544;8.918;2024-02-14T11:28:19;2.35;;;1.10;;
50773;SDS011;36745;48.544;8.918;2024-02-14T11:31:44;1.98;;;1.20;;
50773;SDS011;36745;48.544;8.918;2024-02-14T11:35:04;1.60;;;1.00;;
50773;SDS011;36745;48.544;8.918;2024-02-14T11:38:25;2.70;;;1.13;;
50773;SDS011;36745;48.544;8.918;2024-02-14T11:41:45;2.22;;;0.70;;
50773;SDS011;36745;48.544;8.918;2024-02-14T11:45:05;1.88;;;0.80;;
50773;SDS011;36745;48.544;8.918;2024-02-14T11:48:25;1.40;;;0.88;;
50773;SDS011;36745;48.544;8.918;2024-02-14T11:51:44;0.65;;;0.65;;
50773;SDS011;36745;48.544;8.918;2024-02-14T11:55:04;5.88;;;1.30;;
50773;SDS011;36745;48.544;8.918;2024-02-14T11:58:25;3.40;;;1.20;;
50773;SDS011;36745;48.544;8.918;2024-02-14T12:01:45;1.60;;;0.75;;
50773;SDS011;36745;48.544;8.918;2024-02-14T12:05:05;4.68;;;1.08;;
50773;SDS011;36745;48.544;8.918;2024-02-14T12:08:25;1.75;;;0.65;;
50773;SDS011;36745;48.544;8.918;2024-02-14T12:11:46;2.92;;;0.93;;
50773;SDS011;36745;48.544;8.918;2024-02-14T12:15:08;3.42;;;1.08;;
50773;SDS011;36745;48.544;8.918;2024-02-14T12:18:29;4.00;;;0.90;;
50773;SDS011;36745;48.544;8.918;2024-02-14T12:21:48;1.02;;;0.63;;
50773;SDS011;36745;48.544;8.918;2024-02-14T12:25:08;2.75;;;0.80;;
50773;SDS011;36745;48.544;8.918;2024-02-14T12:28:30;0.70;;;0.60;;
50773;SDS011;36745;48.544;8.918;2024-02-14T12:31:51;2.20;;;0.70;;
50773;SDS011;36745;48.544;8.918;2024-02-14T12:35:11;1.75;;;0.57;;
50773;SDS011;36745;48.544;8.918;2024-02-14T12:38:30;1.27;;;0.57;;
50773;SDS011;36745;48.544;8.918;2024-02-14T12:41:52;3.20;;;0.73;;
50773;SDS011;36745;48.544;8.918;2024-02-14T12:45:11;1.63;;;0.88;;
50773;SDS011;36745;48.544;8.918;2024-02-14T12:48:31;5.25;;;1.88;;
50773;SDS011;36745;48.544;8.918;2024-02-14T12:51:51;3.92;;;1.67;;
50773;SDS011;36745;48.544;8.918;2024-02-14T12:55:11;2.78;;;1.25;;
50773;SDS011;36745;48.544;8.918;2024-02-14T12:58:32;1.15;;;0.60;;
50773;SDS011;36745;48.544;8.918;2024-02-14T13:01:51;3.35;;;0.65;;
50773;SDS011;36745;48.544;8.918;2024-02-14T13:05:11;1.52;;;0.47;;
50773;SDS011;36745;48.544;8.918;2024-02-14T13:08:31;1.10;;;0.50;;
50773;SDS011;36745;48.544;8.918;2024-02-14T13:11:51;0.88;;;0.50;;
50773;SDS011;36745;48.544;8.918;2024-02-14T13:15:11;1.10;;;0.60;;
50773;SDS011;36745;48.544;8.918;2024-02-14T13:18:31;2.28;;;0.55;;
50773;SDS011;36745;48.544;8.918;2024-02-14T13:21:51;4.60;;;0.70;;
50773;SDS011;36745;48.544;8.918;2024-02-14T13:25:11;11.35;;;3.40;;
50773;SDS011;36745;48.544;8.918;2024-02-14T13:28:30;17.00;;;7.25;;
50773;SDS011;36745;48.544;8.918;2024-02-14T13:31:50;5.13;;;2.13;;
50773;SDS011;36745;48.544;8.918;2024-02-14T13:35:10;1.65;;;0.60;;
50773;SDS011;36745;48.544;8.918;2024-02-14T13:38:32;3.60;;;1.80;;
50773;SDS011;36745;48.544;8.918;2024-02-14T13:41:52;4.05;;;0.77;;
50773;SDS011;36745;48.544;8.918;2024-02-14T13:45:14;3.63;;;1.13;;
50773;SDS011;36745;48.544;8.918;2024-02-14T13:48:35;26.38;;;14.88;;
50773;SDS011;36745;48.544;8.918;2024-02-14T13:51:55;4.70;;;1.65;;
50773;SDS011;36745;48.544;8.918;2024-02-14T13:55:15;0.82;;;0.60;;
50773;SDS011;36745;48.544;8.918;2024-02-14T13:58:35;3.33;;;0.80;;
50773;SDS011;36745;48.544;8.918;2024-02-14T14:01:57;1.17;;;1.00;;
50773;SDS011;36745;48.544;8.918;2024-02-14T14:05:17;3.15;;;1.58;;
50773;SDS011;36745;48.544;8.918;2024-02-14T14:08:36;2.35;;;1.40;;
50773;SDS011;36745;48.544;8.918;2024-02-14T14:11:56;1.55;;;0.88;;
50773;SDS011;36745;48.544;8.918;2024-02-14T14:15:16;2.63;;;0.95;;
50773;SDS011;36745;48.544;8.918;2024-02-14T14:18:36;0.68;;;0.68;;
50773;SDS011;36745;48.544;8.918;2024-02-14T14:21:56;5.72;;;0.90;;
50773;SDS011;36745;48.544;8.918;2024-02-14T14:25:16;0.98;;;0.50;;
50773;SDS011;36745;48.544;8.918;2024-02-14T14:28:37;2.22;;;1.00;;
50773;SDS011;36745;48.544;8.918;2024-02-14T14:31:57;2.75;;;1.58;;
50773;SDS011;36745;48.544;8.918;2024-02-14T14:35:17;0.88;;;0.80;;
50773;SDS011;36745;48.544;8.918;2024-02-14T14:38:39;5.97;;;1.20;;
50773;SDS011;36745;48.544;8.918;2024-02-14T14:42:00;7.45;;;0.85;;
50773;SDS011;36745;48.544;8.918;2024-02-14T14:45:20;2.20;;;0.80;;
50773;SDS011;36745;48.544;8.918;2024-02-14T14:48:39;3.72;;;2.22;;
50773;SDS011;36745;48.544;8.918;2024-02-14T14:51:59;7.45;;;1.60;;
50773;SDS011;36745;48.544;8.918;2024-02-14T14:55:19;5.35;;;1.58;;
50773;SDS011;36745;48.544;8.918;2024-02-14T14:58:39;3.20;;;0.90;;
50773;SDS011;36745;48.544;8.918;2024-02-14T15:02:01;5.63;;;3.88;;
50773;SDS011;36745;48.544;8.918;2024-02-14T15:05:21;22.58;;;12.52;;
50773;SDS011;36745;48.544;8.918;2024-02-14T15:08:41;13.02;;;3.25;;
50773;SDS011;36745;48.544;8.918;2024-02-14T15:12:02;7.53;;;3.80;;
50773;SDS011;36745;48.544;8.918;2024-02-14T15:15:24;38.35;;;15.98;;
50773;SDS011;36745;48.544;8.918;2024-02-14T15:18:44;57.00;;;26.40;;
50773;SDS011;36745;48.544;8.918;2024-02-14T15:22:03;63.85;;;30.75;;
50773;SDS011;36745;48.544;8.918;2024-02-14T15:25:23;63.22;;;31.85;;
50773;SDS011;36745;48.544;8.918;2024-02-14T15:28:44;4.65;;;2.45;;
50773;SDS011;36745;48.544;8.918;2024-02-14T15:32:05;14.35;;;2.55;;
50773;SDS011;36745;48.544;8.918;2024-02-14T15:35:43;3.22;;;0.90;;
50773;SDS011;36745;48.544;8.918;2024-02-14T15:39:03;2.55;;;1.60;;
50773;SDS011;36745;48.544;8.918;2024-02-14T15:42:23;2.55;;;1.50;;
50773;SDS011;36745;48.544;8.918;2024-02-14T15:45:42;6.70;;;2.55;;
50773;SDS011;36745;48.544;8.918;2024-02-14T15:49:02;10.70;;;4.22;;
50773;SDS011;36745;48.544;8.918;2024-02-14T15:52:22;6.22;;;2.47;;
50773;SDS011;36745;48.544;8.918;2024-02-14T15:55:42;4.97;;;2.58;;
50773;SDS011;36745;48.544;8.918;2024-02-14T15:59:02;7.20;;;3.30;;
50773;SDS011;36745;48.544;8.918;2024-02-14T16:02:21;6.07;;;4.20;;
50773;SDS011;36745;48.544;8.918;2024-02-14T16:05:41;5.15;;;3.50;;
50773;SDS011;36745;48.544;8.918;2024-02-14T16:09:02;5.30;;;2.90;;
50773;SDS011;36745;48.544;8.918;2024-02-14T16:12:22;11.13;;;4.57;;
50773;SDS011;36745;48.544;8.918;2024-02-14T16:15:42;7.07;;;3.90;;
50773;SDS011;36745;48.544;8.918;2024-02-14T16:19:02;6.85;;;3.58;;
50773;SDS011;36745;48.544;8.918;2024-02-14T16:22:21;8.52;;;4.63;;
50773;SDS011;36745;48.544;8.918;2024-02-14T16:25:43;4.40;;;2.10;;
50773;SDS011;36745;48.544;8.918;2024-02-14T16:29:03;8.00;;;2.42;;
50773;SDS011;36745;48.544;8.918;2024-02-14T16:32:23;3.25;;;1.92;;
50773;SDS011;36745;48.544;8.918;2024-02-14T16:35:43;2.58;;;1.90;;
50773;SDS011;36745;48.544;8.918;2024-02-14T16:39:03;3.97;;;2.30;;
50773;SDS011;36745;48.544;8.918;2024-02-14T16:42:23;2.63;;;1.55;;
50773;SDS011;36745;48.544;8.918;2024-02-14T16:45:43;4.55;;;1.90;;
50773;SDS011;36745;48.544;8.918;2024-02-14T16:49:03;4.70;;;2.20;;
50773;SDS011;36745;48.544;8.918;2024-02-14T16:52:23;3.30;;;1.80;;
50773;SDS011;36745;48.544;8.918;2024-02-14T16:55:42;3.60;;;2.45;;
50773;SDS011;36745;48.544;8.918;2024-02-14T16:59:02;3.53;;;2.03;;
50773;SDS011;36745;48.544;8.918;2024-02-14T17:02:22;6.00;;;2.45;;
50773;SDS011;36745;48.544;8.918;2024-02-14T17:05:44;10.80;;;4.65;;
50773;SDS011;36745;48.544;8.918;2024-02-14T17:09:05;10.05;;;4.85;;
50773;SDS011;36745;48.544;8.918;2024-02-14T17:12:26;11.90;;;5.88;;
50773;SDS011;36745;48.544;8.918;2024-02-14T17:15:45;78.78;;;40.92;;
50773;SDS011;36745;48.544;8.918;2024-02-14T17:19:05;41.45;;;20.13;;
50773;SDS011;36745;48.544;8.918;2024-02-14T17:22:26;21.95;;;9.13;;
50773;SDS011;36745;48.544;8.918;2024-02-14T17:25:46;24.33;;;10.80;;
50773;SDS011;36745;48.544;8.918;2024-02-14T17:29:05;19.17;;;10.10;;
50773;SDS011;36745;48.544;8.918;2024-02-14T17:32:25;18.35;;;8.65;;
50773;SDS011;36745;48.544;8.918;2024-02-14T17:35:45;9.00;;;4.80;;
50773;SDS011;36745;48.544;8.918;2024-02-14T17:39:05;6.82;;;4.15;;
50773;SDS011;36745;48.544;8.918;2024-02-14T17:42:25;5.32;;;3.55;;
50773;SDS011;36745;48.544;8.918;2024-02-14T17:45:45;6.50;;;3.47;;
50773;SDS011;36745;48.544;8.918;2024-02-14T17:49:05;5.90;;;3.85;;
50773;SDS011;36745;48.544;8.918;2024-02-14T17:52:28;3.95;;;2.50;;
50773;SDS011;36745;48.544;8.918;2024-02-14T17:55:48;2.95;;;2.45;;
50773;SDS011;36745;48.544;8.918;2024-02-14T17:59:08;3.08;;;2.40;;
50773;SDS011;36745;48.544;8.918;2024-02-14T18:02:28;5.32;;;2.78;;
50773;SDS011;36745;48.544;8.918;2024-02-14T18:05:48;7.68;;;4.43;;
50773;SDS011;36745;48.544;8.918;2024-02-14T18:09:08;4.00;;;2.53;;
50773;SDS011;36745;48.544;8.918;2024-02-14T18:12:28;1.95;;;1.75;;
50773;SDS011;36745;48.544;8.918;2024-02-14T18:15:48;2.20;;;2.00;;
50773;SDS011;36745;48.544;8.918;2024-02-14T18:19:08;2.30;;;1.58;;
50773;SDS011;36745;48.544;8.918;2024-02-14T18:22:29;2.70;;;2.00;;
50773;SDS011;36745;48.544;8.918;2024-02-14T18:25:49;2.15;;;1.67;;
50773;SDS011;36745;48.544;8.918;2024-02-14T18:29:09;3.50;;;1.88;;
50773;SDS011;36745;48.544;8.918;2024-02-14T18:32:31;3.92;;;1.48;;
50773;SDS011;36745;48.544;8.918;2024-02-14T18:35:51;2.78;;;1.70;;
50773;SDS011;36745;48.544;8.918;2024-02-14T18:39:10;2.63;;;2.40;;
50773;SDS011;36745;48.544;8.918;2024-02-14T18:42:32;2.88;;;2.40;;
50773;SDS011;36745;48.544;8.918;2024-02-14T18:45:51;2.00;;;1.52;;
50773;SDS011;36745;48.544;8.918;2024-02-14T18:49:11;4.05;;;2.30;;
50773;SDS011;36745;48.544;8.918;2024-02-14T18:52:31;5.97;;;2.85;;
50773;SDS011;36745;48.544;8.918;2024-02-14T18:55:51;2.35;;;1.70;;
50773;SDS011;36745;48.544;8.918;2024-02-14T18:59:11;3.55;;;1.95;;
50773;SDS011;36745;48.544;8.918;2024-02-14T19:02:31;5.22;;;2.90;;
50773;SDS011;36745;48.544;8.918;2024-02-14T19:05:52;6.60;;;3.65;;
50773;SDS011;36745;48.544;8.918;2024-02-14T19:09:12;6.03;;;3.25;;
50773;SDS011;36745;48.544;8.918;2024-02-14T19:12:32;7.85;;;3.10;;
50773;SDS011;36745;48.544;8.918;2024-02-14T19:15:52;6.15;;;2.63;;
50773;SDS011;36745;48.544;8.918;2024-02-14T19:19:12;6.60;;;3.22;;
50773;SDS011;36745;48.544;8.918;2024-02-14T19:22:34;13.70;;;6.20;;
50773;SDS011;36745;48.544;8.918;2024-02-14T19:25:54;14.82;;;7.35;;
50773;SDS011;36745;48.544;8.918;2024-02-14T19:29:14;6.75;;;3.08;;
50773;SDS011;36745;48.544;8.918;2024-02-14T19:32:34;3.30;;;2.17;;
50773;SDS011;36745;48.544;8.918;2024-02-14T19:35:58;5.03;;;1.88;;
50773;SDS011;36745;48.544;8.918;2024-02-14T19:39:18;4.20;;;1.70;;
50773;SDS011;36745;48.544;8.918;2024-02-14T19:42:38;2.33;;;1.45;;
50773;SDS011;36745;48.544;8.918;2024-02-14T19:45:57;2.03;;;0.95;;